sensor_id;sensor_type;location;lat;lon;timestamp;temperature;humidity
47521;DHT22;32291;52.010;4.446;2023-05-10T00:00:20;10.90;99.90
47521;DHT22;32291;52.010;4.446;2023-05-10T00:01:24;10.80;99.90
47521;DHT22;32291;52.010;4.446;2023-05-10T00:02:26;10.80;99.90
47521;DHT22;32291;52.010;4.446;2023-05-10T00:03:27;10.80;99.90
47521;DHT22;32291;52.010;4.446;2023-05-10T00:04:29;10.80;99.90
47521;DHT22;32291;52.010;4.446;2023-05-10T00:05:31;10.80;99.90
47521;DHT22;32291;52.010;4.446;2023-05-10T00:06:33;10.80;99.90
47521;DHT22;32291;52.010;4.446;2023-05-10T00:07:35;10.80;99.90
47521;DHT22;32291;52.010;4.446;2023-05-10T00:08:37;10.70;99.90
47521;DHT22;32291;52.010;4.446;2023-05-10T00:09:39;10.70;99.90
47521;DHT22;32291;52.010;4.446;2023-05-10T00:10:41;10.70;99.90
47521;DHT22;32291;52.010;4.446;2023-05-10T00:11:43;10.70;99.90
47521;DHT22;32291;52.010;4.446;2023-05-10T00:12:44;10.60;99.90
47521;DHT22;32291;52.010;4.446;2023-05-10T00:13:46;10.60;99.90
47521;DHT22;32291;52.010;4.446;2023-05-10T00:14:48;10.60;99.90
47521;DHT22;32291;52.010;4.446;2023-05-10T00:15:50;10.60;99.90
47521;DHT22;32291;52.010;4.446;2023-05-10T00:16:51;10.60;99.90
47521;DHT22;32291;52.010;4.446;2023-05-10T00:17:53;10.60;99.90
47521;DHT22;32291;52.010;4.446;2023-05-10T00:18:55;10.50;99.90
47521;DHT22;32291;52.010;4.446;2023-05-10T00:19:56;10.50;99.90
47521;DHT22;32291;52.010;4.446;2023-05-10T00:20:59;10.50;99.90
47521;DHT22;32291;52.010;4.446;2023-05-10T00:22:00;10.50;99.90
47521;DHT22;32291;52.010;4.446;2023-05-10T00:23:02;10.50;99.90
47521;DHT22;32291;52.010;4.446;2023-05-10T00:24:04;10.40;99.90
47521;DHT22;32291;52.010;4.446;2023-05-10T00:25:06;10.50;99.90
47521;DHT22;32291;52.010;4.446;2023-05-10T00:26:09;10.50;99.90
47521;DHT22;32291;52.010;4.446;2023-05-10T00:27:11;10.50;99.90
47521;DHT22;32291;52.010;4.446;2023-05-10T00:28:13;10.50;99.90
47521;DHT22;32291;52.010;4.446;2023-05-10T00:29:15;10.40;99.90
47521;DHT22;32291;52.010;4.446;2023-05-10T00:30:16;10.40;99.90
47521;DHT22;32291;52.010;4.446;2023-05-10T00:31:18;10.40;99.90
47521;DHT22;32291;52.010;4.446;2023-05-10T00:32:19;10.40;99.90
47521;DHT22;32291;52.010;4.446;2023-05-10T00:33:22;10.40;99.90
47521;DHT22;32291;52.010;4.446;2023-05-10T00:34:24;10.40;99.90
47521;DHT22;32291;52.010;4.446;2023-05-10T00:35:26;10.30;99.90
47521;DHT22;32291;52.010;4.446;2023-05-10T00:36:28;10.30;99.90
47521;DHT22;32291;52.010;4.446;2023-05-10T00:37:30;10.30;99.90
47521;DHT22;32291;52.010;4.446;2023-05-10T00:38:32;10.30;99.90
47521;DHT22;32291;52.010;4.446;2023-05-10T00:39:34;10.30;99.90
47521;DHT22;32291;52.010;4.446;2023-05-10T00:40:36;10.30;99.90
47521;DHT22;32291;52.010;4.446;2023-05-10T00:41:39;10.30;99.90
47521;DHT22;32291;52.010;4.446;2023-05-10T00:42:40;10.40;99.90
47521;DHT22;32291;52.010;4.446;2023-05-10T00:43:42;10.40;99.90
47521;DHT22;32291;52.010;4.446;2023-05-10T00:44:44;10.50;99.90
47521;DHT22;32291;52.010;4.446;2023-05-10T00:45:46;10.50;99.90
47521;DHT22;32291;52.010;4.446;2023-05-10T00:46:48;10.60;99.90
47521;DHT22;32291;52.010;4.446;2023-05-10T00:47:51;10.70;99.90
47521;DHT22;32291;52.010;4.446;2023-05-10T00:48:56;10.70;99.90
47521;DHT22;32291;52.010;4.446;2023-05-10T00:49:59;10.80;99.90
47521;DHT22;32291;52.010;4.446;2023-05-10T00:51:02;10.90;99.90
47521;DHT22;32291;52.010;4.446;2023-05-10T00:52:04;11.00;99.90
47521;DHT22;32291;52.010;4.446;2023-05-10T00:53:06;11.10;99.90
47521;DHT22;32291;52.010;4.446;2023-05-10T00:54:11;11.10;99.90
47521;DHT22;32291;52.010;4.446;2023-05-10T00:55:15;11.10;99.90
47521;DHT22;32291;52.010;4.446;2023-05-10T00:56:17;11.20;99.90
47521;DHT22;32291;52.010;4.446;2023-05-10T00:57:19;11.20;99.90
47521;DHT22;32291;52.010;4.446;2023-05-10T00:58:21;11.30;99.90
47521;DHT22;32291;52.010;4.446;2023-05-10T00:59:25;11.30;99.90
47521;DHT22;32291;52.010;4.446;2023-05-10T01:00:27;11.40;99.90
47521;DHT22;32291;52.010;4.446;2023-05-10T01:01:28;11.40;99.90
47521;DHT22;32291;52.010;4.446;2023-05-10T01:02:31;11.50;99.90
47521;DHT22;32291;52.010;4.446;2023-05-10T01:03:36;11.40;99.90
47521;DHT22;32291;52.010;4.446;2023-05-10T01:04:38;11.50;99.90
47521;DHT22;32291;52.010;4.446;2023-05-10T01:05:40;11.50;99.90
47521;DHT22;32291;52.010;4.446;2023-05-10T01:06:43;11.50;99.90
47521;DHT22;32291;52.010;4.446;2023-05-10T01:07:44;11.60;99.90
47521;DHT22;32291;52.010;4.446;2023-05-10T01:08:46;11.60;99.90
47521;DHT22;32291;52.010;4.446;2023-05-10T01:09:48;11.60;99.90
47521;DHT22;32291;52.010;4.446;2023-05-10T01:10:50;11.60;99.90
47521;DHT22;32291;52.010;4.446;2023-05-10T01:11:53;11.60;99.90
47521;DHT22;32291;52.010;4.446;2023-05-10T01:12:55;11.60;99.90
47521;DHT22;32291;52.010;4.446;2023-05-10T01:13:58;11.70;99.90
47521;DHT22;32291;52.010;4.446;2023-05-10T01:15:01;11.70;99.90
47521;DHT22;32291;52.010;4.446;2023-05-10T01:16:03;11.70;99.90
47521;DHT22;32291;52.010;4.446;2023-05-10T01:17:08;11.70;99.90
47521;DHT22;32291;52.010;4.446;2023-05-10T01:18:11;11.80;99.90
47521;DHT22;32291;52.010;4.446;2023-05-10T01:20:23;11.80;99.90
47521;DHT22;32291;52.010;4.446;2023-05-10T01:34:09;11.80;99.90
47521;DHT22;32291;52.010;4.446;2023-05-10T01:35:51;11.80;99.90
47521;DHT22;32291;52.010;4.446;2023-05-10T01:37:15;11.70;99.90
47521;DHT22;32291;52.010;4.446;2023-05-10T01:40:27;11.70;99.90
47521;DHT22;32291;52.010;4.446;2023-05-10T01:41:51;11.70;99.90
47521;DHT22;32291;52.010;4.446;2023-05-10T01:43:02;11.80;99.90
47521;DHT22;32291;52.010;4.446;2023-05-10T01:44:27;11.80;99.90
47521;DHT22;32291;52.010;4.446;2023-05-10T01:45:50;11.80;99.90
47521;DHT22;32291;52.010;4.446;2023-05-10T01:47:18;11.80;99.90
47521;DHT22;32291;52.010;4.446;2023-05-10T01:48:26;11.90;99.90
47521;DHT22;32291;52.010;4.446;2023-05-10T01:49:34;11.90;99.90
47521;DHT22;32291;52.010;4.446;2023-05-10T01:50:43;11.90;99.90
47521;DHT22;32291;52.010;4.446;2023-05-10T01:51:50;12.00;99.90
47521;DHT22;32291;52.010;4.446;2023-05-10T01:52:59;12.00;99.90
47521;DHT22;32291;52.010;4.446;2023-05-10T01:54:05;12.00;99.90
47521;DHT22;32291;52.010;4.446;2023-05-10T01:55:11;12.00;99.90
47521;DHT22;32291;52.010;4.446;2023-05-10T01:56:19;12.00;99.90
47521;DHT22;32291;52.010;4.446;2023-05-10T01:57:33;12.00;99.90
47521;DHT22;32291;52.010;4.446;2023-05-10T01:58:36;12.10;99.90
47521;DHT22;32291;52.010;4.446;2023-05-10T01:59:43;12.00;99.90
47521;DHT22;32291;52.010;4.446;2023-05-10T02:00:52;12.10;99.90
47521;DHT22;32291;52.010;4.446;2023-05-10T02:01:58;12.10;99.90
47521;DHT22;32291;52.010;4.446;2023-05-10T02:03:06;12.10;99.90
47521;DHT22;32291;52.010;4.446;2023-05-10T02:04:11;12.10;99.90
47521;DHT22;32291;52.010;4.446;2023-05-10T02:05:17;12.20;99.90
47521;DHT22;32291;52.010;4.446;2023-05-10T02:06:21;12.20;99.90
47521;DHT22;32291;52.010;4.446;2023-05-10T02:07:27;12.10;99.90
47521;DHT22;32291;52.010;4.446;2023-05-10T02:08:30;12.20;99.90
47521;DHT22;32291;52.010;4.446;2023-05-10T02:09:37;12.20;99.90
47521;DHT22;32291;52.010;4.446;2023-05-10T02:10:40;12.20;99.90
47521;DHT22;32291;52.010;4.446;2023-05-10T02:11:44;12.30;99.90
47521;DHT22;32291;52.010;4.446;2023-05-10T02:12:47;12.20;99.90
47521;DHT22;32291;52.010;4.446;2023-05-10T02:13:51;12.30;99.90
47521;DHT22;32291;52.010;4.446;2023-05-10T02:14:57;12.20;99.90
47521;DHT22;32291;52.010;4.446;2023-05-10T02:16:05;12.20;99.90
47521;DHT22;32291;52.010;4.446;2023-05-10T02:17:09;12.20;99.90
47521;DHT22;32291;52.010;4.446;2023-05-10T02:18:11;12.20;99.90
47521;DHT22;32291;52.010;4.446;2023-05-10T02:19:15;12.20;99.90
47521;DHT22;32291;52.010;4.446;2023-05-10T02:20:20;12.20;99.90
47521;DHT22;32291;52.010;4.446;2023-05-10T02:21:24;12.20;99.90
47521;DHT22;32291;52.010;4.446;2023-05-10T02:22:27;12.30;99.90
47521;DHT22;32291;52.010;4.446;2023-05-10T02:23:30;12.30;99.90
47521;DHT22;32291;52.010;4.446;2023-05-10T02:24:33;12.20;99.90
47521;DHT22;32291;52.010;4.446;2023-05-10T02:25:37;12.20;99.90
47521;DHT22;32291;52.010;4.446;2023-05-10T02:26:41;12.20;99.90
47521;DHT22;32291;52.010;4.446;2023-05-10T02:27:44;12.30;99.90
47521;DHT22;32291;52.010;4.446;2023-05-10T02:28:49;12.30;99.90
47521;DHT22;32291;52.010;4.446;2023-05-10T02:29:53;12.20;99.90
47521;DHT22;32291;52.010;4.446;2023-05-10T02:30:56;12.20;99.90
47521;DHT22;32291;52.010;4.446;2023-05-10T02:31:59;12.20;99.90
47521;DHT22;32291;52.010;4.446;2023-05-10T02:33:02;12.20;99.90
47521;DHT22;32291;52.010;4.446;2023-05-10T02:34:07;12.20;99.90
47521;DHT22;32291;52.010;4.446;2023-05-10T02:35:10;12.20;99.90
47521;DHT22;32291;52.010;4.446;2023-05-10T02:36:13;12.30;99.90
47521;DHT22;32291;52.010;4.446;2023-05-10T02:37:19;12.30;99.90
47521;DHT22;32291;52.010;4.446;2023-05-10T02:38:23;12.40;99.90
47521;DHT22;32291;52.010;4.446;2023-05-10T02:39:28;12.40;99.90
47521;DHT22;32291;52.010;4.446;2023-05-10T02:40:32;12.40;99.90
47521;DHT22;32291;52.010;4.446;2023-05-10T02:41:36;12.40;99.90
47521;DHT22;32291;52.010;4.446;2023-05-10T02:42:42;12.40;99.90
47521;DHT22;32291;52.010;4.446;2023-05-10T02:43:47;12.40;99.90
47521;DHT22;32291;52.010;4.446;2023-05-10T02:44:56;12.40;99.90
47521;DHT22;32291;52.010;4.446;2023-05-10T02:46:02;12.30;99.90
47521;DHT22;32291;52.010;4.446;2023-05-10T02:47:04;12.30;99.90
47521;DHT22;32291;52.010;4.446;2023-05-10T02:48:06;12.30;99.90
47521;DHT22;32291;52.010;4.446;2023-05-10T02:49:08;12.30;99.90
47521;DHT22;32291;52.010;4.446;2023-05-10T02:50:10;12.30;99.90
47521;DHT22;32291;52.010;4.446;2023-05-10T02:51:14;12.20;99.90
47521;DHT22;32291;52.010;4.446;2023-05-10T02:52:36;12.30;99.90
47521;DHT22;32291;52.010;4.446;2023-05-10T02:53:43;12.30;99.90
47521;DHT22;32291;52.010;4.446;2023-05-10T02:54:50;12.30;99.90
47521;DHT22;32291;52.010;4.446;2023-05-10T02:55:58;12.30;99.90
47521;DHT22;32291;52.010;4.446;2023-05-10T02:57:04;12.30;99.90
47521;DHT22;32291;52.010;4.446;2023-05-10T02:58:08;12.30;99.90
47521;DHT22;32291;52.010;4.446;2023-05-10T02:59:09;12.30;99.90
47521;DHT22;32291;52.010;4.446;2023-05-10T03:00:12;12.30;99.90
47521;DHT22;32291;52.010;4.446;2023-05-10T03:01:14;12.30;99.90
47521;DHT22;32291;52.010;4.446;2023-05-10T03:02:16;12.30;99.90
47521;DHT22;32291;52.010;4.446;2023-05-10T03:03:19;12.30;99.90
47521;DHT22;32291;52.010;4.446;2023-05-10T03:04:21;12.30;99.90
47521;DHT22;32291;52.010;4.446;2023-05-10T03:05:22;12.30;99.90
47521;DHT22;32291;52.010;4.446;2023-05-10T03:06:24;12.30;99.90
47521;DHT22;32291;52.010;4.446;2023-05-10T03:07:27;12.20;99.90
47521;DHT22;32291;52.010;4.446;2023-05-10T03:08:29;12.30;99.90
47521;DHT22;32291;52.010;4.446;2023-05-10T03:09:32;12.20;99.90
47521;DHT22;32291;52.010;4.446;2023-05-10T03:10:41;12.20;99.90
47521;DHT22;32291;52.010;4.446;2023-05-10T03:12:32;12.20;99.90
47521;DHT22;32291;52.010;4.446;2023-05-10T03:15:03;12.20;99.90
47521;DHT22;32291;52.010;4.446;2023-05-10T03:16:31;12.20;99.90
47521;DHT22;32291;52.010;4.446;2023-05-10T03:19:18;12.20;99.90
47521;DHT22;32291;52.010;4.446;2023-05-10T03:20:38;12.20;99.90
47521;DHT22;32291;52.010;4.446;2023-05-10T03:21:49;12.20;99.90
47521;DHT22;32291;52.010;4.446;2023-05-10T03:23:00;12.20;99.90
47521;DHT22;32291;52.010;4.446;2023-05-10T03:24:07;12.20;99.90
47521;DHT22;32291;52.010;4.446;2023-05-10T03:25:15;12.20;99.90
47521;DHT22;32291;52.010;4.446;2023-05-10T03:26:25;12.20;99.90
47521;DHT22;32291;52.010;4.446;2023-05-10T03:27:29;12.20;99.90
47521;DHT22;32291;52.010;4.446;2023-05-10T03:28:36;12.30;99.90
47521;DHT22;32291;52.010;4.446;2023-05-10T03:29:39;12.30;99.90
47521;DHT22;32291;52.010;4.446;2023-05-10T03:30:43;12.30;99.90
47521;DHT22;32291;52.010;4.446;2023-05-10T03:31:46;12.30;99.90
47521;DHT22;32291;52.010;4.446;2023-05-10T03:32:48;12.30;99.90
47521;DHT22;32291;52.010;4.446;2023-05-10T03:33:51;12.30;99.90
47521;DHT22;32291;52.010;4.446;2023-05-10T03:34:53;12.30;99.90
47521;DHT22;32291;52.010;4.446;2023-05-10T03:35:55;12.30;99.90
47521;DHT22;32291;52.010;4.446;2023-05-10T03:36:57;12.30;99.90
47521;DHT22;32291;52.010;4.446;2023-05-10T03:37:58;12.30;99.90
47521;DHT22;32291;52.010;4.446;2023-05-10T03:39:00;12.30;99.90
47521;DHT22;32291;52.010;4.446;2023-05-10T03:40:02;12.30;99.90
47521;DHT22;32291;52.010;4.446;2023-05-10T03:41:05;12.30;99.90
47521;DHT22;32291;52.010;4.446;2023-05-10T03:42:07;12.20;99.90
47521;DHT22;32291;52.010;4.446;2023-05-10T03:43:09;12.30;99.90
47521;DHT22;32291;52.010;4.446;2023-05-10T03:44:11;12.30;99.90
47521;DHT22;32291;52.010;4.446;2023-05-10T03:45:13;12.30;99.90
47521;DHT22;32291;52.010;4.446;2023-05-10T03:46:15;12.20;99.90
47521;DHT22;32291;52.010;4.446;2023-05-10T03:47:16;12.20;99.90
47521;DHT22;32291;52.010;4.446;2023-05-10T03:48:19;12.20;99.90
47521;DHT22;32291;52.010;4.446;2023-05-10T03:49:21;12.20;99.90
47521;DHT22;32291;52.010;4.446;2023-05-10T03:50:22;12.20;99.90
47521;DHT22;32291;52.010;4.446;2023-05-10T03:51:24;12.30;99.90
47521;DHT22;32291;52.010;4.446;2023-05-10T03:52:29;12.20;99.90
47521;DHT22;32291;52.010;4.446;2023-05-10T03:53:30;12.20;99.90
47521;DHT22;32291;52.010;4.446;2023-05-10T03:54:32;12.20;99.90
47521;DHT22;32291;52.010;4.446;2023-05-10T03:55:33;12.20;99.90
47521;DHT22;32291;52.010;4.446;2023-05-10T03:56:37;12.20;99.90
47521;DHT22;32291;52.010;4.446;2023-05-10T03:57:39;12.20;99.90
47521;DHT22;32291;52.010;4.446;2023-05-10T03:58:41;12.20;99.90
47521;DHT22;32291;52.010;4.446;2023-05-10T03:59:43;12.10;99.90
47521;DHT22;32291;52.010;4.446;2023-05-10T04:00:45;12.20;99.90
47521;DHT22;32291;52.010;4.446;2023-05-10T04:01:47;12.20;99.90
47521;DHT22;32291;52.010;4.446;2023-05-10T04:02:49;12.20;99.90
47521;DHT22;32291;52.010;4.446;2023-05-10T04:03:51;12.10;99.90
47521;DHT22;32291;52.010;4.446;2023-05-10T04:04:52;12.20;99.90
47521;DHT22;32291;52.010;4.446;2023-05-10T04:06:01;12.20;99.90
47521;DHT22;32291;52.010;4.446;2023-05-10T04:07:03;12.20;99.90
47521;DHT22;32291;52.010;4.446;2023-05-10T04:08:05;12.20;99.90
47521;DHT22;32291;52.010;4.446;2023-05-10T04:09:07;12.20;99.90
47521;DHT22;32291;52.010;4.446;2023-05-10T04:10:10;12.20;99.90
47521;DHT22;32291;52.010;4.446;2023-05-10T04:11:12;12.20;99.90
47521;DHT22;32291;52.010;4.446;2023-05-10T04:12:15;12.20;99.90
47521;DHT22;32291;52.010;4.446;2023-05-10T04:13:17;12.20;99.90
47521;DHT22;32291;52.010;4.446;2023-05-10T04:14:19;12.20;99.90
47521;DHT22;32291;52.010;4.446;2023-05-10T04:15:20;12.20;99.90
47521;DHT22;32291;52.010;4.446;2023-05-10T04:16:22;12.20;99.90
47521;DHT22;32291;52.010;4.446;2023-05-10T04:17:23;12.20;99.90
47521;DHT22;32291;52.010;4.446;2023-05-10T04:18:25;12.30;99.90
47521;DHT22;32291;52.010;4.446;2023-05-10T04:19:30;12.20;99.90
47521;DHT22;32291;52.010;4.446;2023-05-10T04:20:33;12.20;99.90
47521;DHT22;32291;52.010;4.446;2023-05-10T04:21:36;12.20;99.90
47521;DHT22;32291;52.010;4.446;2023-05-10T04:22:38;12.10;99.90
47521;DHT22;32291;52.010;4.446;2023-05-10T04:23:40;12.10;99.90
47521;DHT22;32291;52.010;4.446;2023-05-10T04:24:42;12.20;99.90
47521;DHT22;32291;52.010;4.446;2023-05-10T04:25:43;12.20;99.90
47521;DHT22;32291;52.010;4.446;2023-05-10T04:26:45;12.20;99.90
47521;DHT22;32291;52.010;4.446;2023-05-10T04:27:46;12.20;99.90
47521;DHT22;32291;52.010;4.446;2023-05-10T04:28:48;12.20;99.90
47521;DHT22;32291;52.010;4.446;2023-05-10T04:29:50;12.20;99.90
47521;DHT22;32291;52.010;4.446;2023-05-10T04:30:51;12.20;99.90
47521;DHT22;32291;52.010;4.446;2023-05-10T04:31:54;12.10;99.90
47521;DHT22;32291;52.010;4.446;2023-05-10T04:32:57;12.10;99.90
47521;DHT22;32291;52.010;4.446;2023-05-10T04:33:59;12.10;99.90
47521;DHT22;32291;52.010;4.446;2023-05-10T04:35:01;12.10;99.90
47521;DHT22;32291;52.010;4.446;2023-05-10T04:36:05;12.10;99.90
47521;DHT22;32291;52.010;4.446;2023-05-10T04:37:07;12.10;99.90
47521;DHT22;32291;52.010;4.446;2023-05-10T04:38:09;12.00;99.90
47521;DHT22;32291;52.010;4.446;2023-05-10T04:39:11;12.00;99.90
47521;DHT22;32291;52.010;4.446;2023-05-10T04:40:16;12.00;99.90
47521;DHT22;32291;52.010;4.446;2023-05-10T04:41:17;11.90;99.90
47521;DHT22;32291;52.010;4.446;2023-05-10T04:42:19;12.00;99.90
47521;DHT22;32291;52.010;4.446;2023-05-10T04:43:20;11.90;99.90
47521;DHT22;32291;52.010;4.446;2023-05-10T04:44:22;11.90;99.90
47521;DHT22;32291;52.010;4.446;2023-05-10T04:45:24;12.00;99.90
47521;DHT22;32291;52.010;4.446;2023-05-10T04:46:26;12.00;99.90
47521;DHT22;32291;52.010;4.446;2023-05-10T04:47:27;12.00;99.90
47521;DHT22;32291;52.010;4.446;2023-05-10T04:48:29;12.00;99.90
47521;DHT22;32291;52.010;4.446;2023-05-10T04:49:30;12.00;99.90
47521;DHT22;32291;52.010;4.446;2023-05-10T04:50:32;12.00;99.90
47521;DHT22;32291;52.010;4.446;2023-05-10T04:51:34;12.10;99.90
47521;DHT22;32291;52.010;4.446;2023-05-10T04:52:36;12.00;99.90
47521;DHT22;32291;52.010;4.446;2023-05-10T04:53:38;12.10;99.90
47521;DHT22;32291;52.010;4.446;2023-05-10T04:54:40;12.00;99.90
47521;DHT22;32291;52.010;4.446;2023-05-10T04:55:41;12.00;99.90
47521;DHT22;32291;52.010;4.446;2023-05-10T04:56:43;12.00;99.90
47521;DHT22;32291;52.010;4.446;2023-05-10T04:57:45;12.10;99.90
47521;DHT22;32291;52.010;4.446;2023-05-10T04:58:46;12.10;99.90
47521;DHT22;32291;52.010;4.446;2023-05-10T04:59:48;12.10;99.90
47521;DHT22;32291;52.010;4.446;2023-05-10T05:00:50;12.10;99.90
47521;DHT22;32291;52.010;4.446;2023-05-10T05:01:52;12.20;99.90
47521;DHT22;32291;52.010;4.446;2023-05-10T05:02:53;12.20;99.90
47521;DHT22;32291;52.010;4.446;2023-05-10T05:03:56;12.10;99.90
47521;DHT22;32291;52.010;4.446;2023-05-10T05:04:57;12.10;99.90
47521;DHT22;32291;52.010;4.446;2023-05-10T05:05:59;12.10;99.90
47521;DHT22;32291;52.010;4.446;2023-05-10T05:07:00;12.00;99.90
47521;DHT22;32291;52.010;4.446;2023-05-10T05:08:02;12.10;99.90
47521;DHT22;32291;52.010;4.446;2023-05-10T05:09:04;12.00;99.90
47521;DHT22;32291;52.010;4.446;2023-05-10T05:10:07;12.00;99.90
47521;DHT22;32291;52.010;4.446;2023-05-10T05:11:09;12.00;99.90
47521;DHT22;32291;52.010;4.446;2023-05-10T05:12:11;12.00;99.90
47521;DHT22;32291;52.010;4.446;2023-05-10T05:13:15;11.90;99.90
47521;DHT22;32291;52.010;4.446;2023-05-10T05:14:16;11.90;99.90
47521;DHT22;32291;52.010;4.446;2023-05-10T05:15:18;11.90;99.90
47521;DHT22;32291;52.010;4.446;2023-05-10T05:16:20;11.90;99.90
47521;DHT22;32291;52.010;4.446;2023-05-10T05:17:21;11.90;99.90
47521;DHT22;32291;52.010;4.446;2023-05-10T05:18:23;11.90;99.90
47521;DHT22;32291;52.010;4.446;2023-05-10T05:19:25;11.90;99.90
47521;DHT22;32291;52.010;4.446;2023-05-10T05:20:27;11.90;99.90
47521;DHT22;32291;52.010;4.446;2023-05-10T05:21:28;11.90;99.90
47521;DHT22;32291;52.010;4.446;2023-05-10T05:22:30;11.80;99.90
47521;DHT22;32291;52.010;4.446;2023-05-10T05:23:32;11.90;99.90
47521;DHT22;32291;52.010;4.446;2023-05-10T05:24:37;11.90;99.90
47521;DHT22;32291;52.010;4.446;2023-05-10T05:25:42;11.90;99.90
47521;DHT22;32291;52.010;4.446;2023-05-10T05:26:43;11.90;99.90
47521;DHT22;32291;52.010;4.446;2023-05-10T05:27:45;11.90;99.90
47521;DHT22;32291;52.010;4.446;2023-05-10T05:28:47;11.90;99.90
47521;DHT22;32291;52.010;4.446;2023-05-10T05:29:53;11.90;99.90
47521;DHT22;32291;52.010;4.446;2023-05-10T05:30:55;12.00;99.90
47521;DHT22;32291;52.010;4.446;2023-05-10T05:31:57;12.00;99.90
47521;DHT22;32291;52.010;4.446;2023-05-10T05:32:59;11.90;99.90
47521;DHT22;32291;52.010;4.446;2023-05-10T05:34:01;11.90;99.90
47521;DHT22;32291;52.010;4.446;2023-05-10T05:35:03;11.90;99.90
47521;DHT22;32291;52.010;4.446;2023-05-10T05:36:05;12.00;99.90
47521;DHT22;32291;52.010;4.446;2023-05-10T05:37:07;12.00;99.90
47521;DHT22;32291;52.010;4.446;2023-05-10T05:38:13;11.90;99.90
47521;DHT22;32291;52.010;4.446;2023-05-10T05:39:15;11.90;99.90
47521;DHT22;32291;52.010;4.446;2023-05-10T05:40:17;12.00;99.90
47521;DHT22;32291;52.010;4.446;2023-05-10T05:41:19;12.00;99.90
47521;DHT22;32291;52.010;4.446;2023-05-10T05:42:21;12.00;99.90
47521;DHT22;32291;52.010;4.446;2023-05-10T05:43:23;12.00;99.90
47521;DHT22;32291;52.010;4.446;2023-05-10T05:44:24;12.00;99.90
47521;DHT22;32291;52.010;4.446;2023-05-10T05:45:26;12.10;99.90
47521;DHT22;32291;52.010;4.446;2023-05-10T05:46:28;12.10;99.90
47521;DHT22;32291;52.010;4.446;2023-05-10T05:47:30;12.10;99.90
47521;DHT22;32291;52.010;4.446;2023-05-10T05:48:32;12.10;99.90
47521;DHT22;32291;52.010;4.446;2023-05-10T05:49:33;12.20;99.90
47521;DHT22;32291;52.010;4.446;2023-05-10T05:50:35;12.20;99.90
47521;DHT22;32291;52.010;4.446;2023-05-10T05:51:37;12.20;99.90
47521;DHT22;32291;52.010;4.446;2023-05-10T05:52:38;12.20;99.90
47521;DHT22;32291;52.010;4.446;2023-05-10T05:53:40;12.20;99.90
47521;DHT22;32291;52.010;4.446;2023-05-10T05:54:42;12.20;99.90
47521;DHT22;32291;52.010;4.446;2023-05-10T05:55:58;12.20;99.90
47521;DHT22;32291;52.010;4.446;2023-05-10T05:57:00;12.30;99.90
47521;DHT22;32291;52.010;4.446;2023-05-10T05:58:02;12.40;99.90
47521;DHT22;32291;52.010;4.446;2023-05-10T05:59:04;12.40;99.90
47521;DHT22;32291;52.010;4.446;2023-05-10T06:00:06;12.40;99.90
47521;DHT22;32291;52.010;4.446;2023-05-10T06:01:08;12.40;99.90
47521;DHT22;32291;52.010;4.446;2023-05-10T06:02:10;12.40;99.90
47521;DHT22;32291;52.010;4.446;2023-05-10T06:03:12;12.40;99.90
47521;DHT22;32291;52.010;4.446;2023-05-10T06:04:15;12.50;99.90
47521;DHT22;32291;52.010;4.446;2023-05-10T06:05:17;12.50;99.90
47521;DHT22;32291;52.010;4.446;2023-05-10T06:06:19;12.60;99.90
47521;DHT22;32291;52.010;4.446;2023-05-10T06:07:21;12.60;99.90
47521;DHT22;32291;52.010;4.446;2023-05-10T06:08:22;12.70;99.90
47521;DHT22;32291;52.010;4.446;2023-05-10T06:09:24;12.80;99.90
47521;DHT22;32291;52.010;4.446;2023-05-10T06:10:26;12.90;99.90
47521;DHT22;32291;52.010;4.446;2023-05-10T06:11:28;13.00;99.90
47521;DHT22;32291;52.010;4.446;2023-05-10T06:12:29;13.30;99.90
47521;DHT22;32291;52.010;4.446;2023-05-10T06:13:31;13.40;99.90
47521;DHT22;32291;52.010;4.446;2023-05-10T06:14:33;13.50;99.90
47521;DHT22;32291;52.010;4.446;2023-05-10T06:15:35;13.60;99.90
47521;DHT22;32291;52.010;4.446;2023-05-10T06:16:37;13.80;99.90
47521;DHT22;32291;52.010;4.446;2023-05-10T06:17:39;13.80;99.90
47521;DHT22;32291;52.010;4.446;2023-05-10T06:18:41;13.80;99.90
47521;DHT22;32291;52.010;4.446;2023-05-10T06:19:44;13.80;99.90
47521;DHT22;32291;52.010;4.446;2023-05-10T06:20:45;13.90;99.90
47521;DHT22;32291;52.010;4.446;2023-05-10T06:21:47;13.90;99.90
47521;DHT22;32291;52.010;4.446;2023-05-10T06:22:49;14.00;99.90
47521;DHT22;32291;52.010;4.446;2023-05-10T06:23:51;14.10;99.90
47521;DHT22;32291;52.010;4.446;2023-05-10T06:24:52;14.30;99.90
47521;DHT22;32291;52.010;4.446;2023-05-10T06:25:54;14.40;99.90
47521;DHT22;32291;52.010;4.446;2023-05-10T06:26:55;14.50;99.90
47521;DHT22;32291;52.010;4.446;2023-05-10T06:27:57;14.70;99.90
47521;DHT22;32291;52.010;4.446;2023-05-10T06:28:59;14.70;99.90
47521;DHT22;32291;52.010;4.446;2023-05-10T06:30:02;14.90;99.90
47521;DHT22;32291;52.010;4.446;2023-05-10T06:31:05;15.00;99.90
47521;DHT22;32291;52.010;4.446;2023-05-10T06:32:08;15.20;99.90
47521;DHT22;32291;52.010;4.446;2023-05-10T06:33:10;15.30;99.90
47521;DHT22;32291;52.010;4.446;2023-05-10T06:34:12;15.30;99.90
47521;DHT22;32291;52.010;4.446;2023-05-10T06:35:15;15.40;99.90
47521;DHT22;32291;52.010;4.446;2023-05-10T06:36:16;15.40;99.90
47521;DHT22;32291;52.010;4.446;2023-05-10T06:37:18;15.40;99.90
47521;DHT22;32291;52.010;4.446;2023-05-10T06:38:20;15.40;99.90
47521;DHT22;32291;52.010;4.446;2023-05-10T06:39:22;15.30;99.90
47521;DHT22;32291;52.010;4.446;2023-05-10T06:40:24;15.30;99.90
47521;DHT22;32291;52.010;4.446;2023-05-10T06:41:26;15.30;99.90
47521;DHT22;32291;52.010;4.446;2023-05-10T06:42:28;15.20;99.90
47521;DHT22;32291;52.010;4.446;2023-05-10T06:43:30;15.30;99.90
47521;DHT22;32291;52.010;4.446;2023-05-10T06:44:32;15.20;99.90
47521;DHT22;32291;52.010;4.446;2023-05-10T06:45:33;15.10;99.90
47521;DHT22;32291;52.010;4.446;2023-05-10T06:46:35;15.10;99.90
47521;DHT22;32291;52.010;4.446;2023-05-10T06:47:37;15.10;99.90
47521;DHT22;32291;52.010;4.446;2023-05-10T06:48:39;15.00;99.90
47521;DHT22;32291;52.010;4.446;2023-05-10T06:49:41;15.10;99.90
47521;DHT22;32291;52.010;4.446;2023-05-10T06:50:45;15.10;99.90
47521;DHT22;32291;52.010;4.446;2023-05-10T06:51:47;15.00;99.90
47521;DHT22;32291;52.010;4.446;2023-05-10T06:52:49;15.10;99.90
47521;DHT22;32291;52.010;4.446;2023-05-10T06:53:51;15.00;99.90
47521;DHT22;32291;52.010;4.446;2023-05-10T06:54:53;15.00;99.90
47521;DHT22;32291;52.010;4.446;2023-05-10T06:55:55;14.90;99.90
47521;DHT22;32291;52.010;4.446;2023-05-10T06:56:57;14.90;99.90
47521;DHT22;32291;52.010;4.446;2023-05-10T06:57:59;14.90;99.90
47521;DHT22;32291;52.010;4.446;2023-05-10T06:59:01;14.90;99.90
47521;DHT22;32291;52.010;4.446;2023-05-10T07:00:05;14.90;99.90